createdAt,value
2022-10-21T00:00:11.142Z,46.91
2022-10-21T00:02:59.735Z,46.85
2022-10-21T00:05:46.309Z,47.19
2022-10-21T00:08:32.522Z,46.97
2022-10-21T00:11:18.933Z,46.59
2022-10-21T00:14:05.309Z,46.93
2022-10-21T00:16:51.741Z,46.99
2022-10-21T00:19:40.021Z,46.78
2022-10-21T00:22:25.989Z,46.55
2022-10-21T00:25:12.121Z,46.87
2022-10-21T00:27:58.132Z,46.87
2022-10-21T00:30:45.532Z,47.09
2022-10-21T00:33:31.643Z,47.02
2022-10-21T00:36:18.136Z,46.96
2022-10-21T00:39:04.285Z,47.22
2022-10-21T00:41:50.523Z,47.25
2022-10-21T00:44:37.652Z,46.91
2022-10-21T00:47:23.783Z,47.10
2022-10-21T00:50:19.236Z,47.32
2022-10-21T00:53:07.371Z,47.05
2022-10-21T00:55:56.536Z,47.08
2022-10-21T00:58:42.433Z,47.48
2022-10-21T01:01:28.557Z,47.11
2022-10-21T01:04:14.524Z,47.16
2022-10-21T01:07:00.933Z,47.21
2022-10-21T01:09:46.965Z,47.28
2022-10-21T01:12:44.442Z,47.32
2022-10-21T01:15:39.568Z,47.10
2022-10-21T01:18:39.943Z,47.34
2022-10-21T01:22:03.104Z,47.58
2022-10-21T01:24:55.249Z,47.74
2022-10-21T01:27:52.181Z,47.37
2022-10-21T01:31:22.721Z,47.88
2022-10-21T01:34:21.046Z,47.99
2022-10-21T01:37:23.909Z,47.77
2022-10-21T01:40:16.966Z,47.61
2022-10-21T01:43:17.116Z,47.49
2022-10-21T01:46:19.543Z,47.71
2022-10-21T01:49:14.084Z,47.78
2022-10-21T01:52:01.108Z,47.86
2022-10-21T01:54:52.412Z,47.99
2022-10-21T01:57:41.658Z,47.65
2022-10-21T02:00:27.644Z,47.96
2022-10-21T02:03:19.561Z,47.60
2022-10-21T02:06:05.540Z,47.99
2022-10-21T02:08:51.696Z,47.77
2022-10-21T02:11:39.272Z,47.80
2022-10-21T02:14:31.693Z,48.05
2022-10-21T02:17:19.809Z,48.20
2022-10-21T02:20:09.593Z,48.09
2022-10-21T02:22:55.521Z,48.09
2022-10-21T02:25:42.949Z,48.33
2022-10-21T02:28:29.588Z,48.01
2022-10-21T02:31:21.892Z,47.74
2022-10-21T02:34:16.840Z,47.79
2022-10-21T02:37:24.632Z,47.96
2022-10-21T02:40:16.115Z,48.38
2022-10-21T02:43:09.433Z,48.57
2022-10-21T02:46:02.547Z,48.01
2022-10-21T02:48:48.375Z,48.14
2022-10-21T02:51:34.847Z,48.36
2022-10-21T02:54:20.999Z,47.98
2022-10-21T02:57:06.973Z,48.18
2022-10-21T02:59:53.114Z,48.00
2022-10-21T03:02:39.144Z,48.25
2022-10-21T03:05:25.229Z,48.58
2022-10-21T03:08:11.177Z,48.21
2022-10-21T03:10:57.265Z,48.06
2022-10-21T03:13:43.310Z,48.39
2022-10-21T03:16:29.440Z,48.20
2022-10-21T03:19:15.468Z,48.43
2022-10-21T03:22:01.547Z,48.27
2022-10-21T03:24:47.533Z,48.30
2022-10-21T03:27:33.510Z,48.30
2022-10-21T03:30:19.738Z,48.68
2022-10-21T03:33:05.655Z,48.08
2022-10-21T03:35:51.609Z,48.58
2022-10-21T03:38:37.692Z,48.54
2022-10-21T03:41:23.567Z,48.60
2022-10-21T03:44:09.667Z,48.28
2022-10-21T03:46:55.559Z,48.42
2022-10-21T03:49:41.561Z,48.69
2022-10-21T03:52:27.796Z,48.42
2022-10-21T03:55:13.647Z,48.82
2022-10-21T03:57:59.678Z,48.49
2022-10-21T04:00:45.710Z,48.73
2022-10-21T04:03:31.753Z,48.54
2022-10-21T04:06:17.871Z,48.35
2022-10-21T04:09:04.100Z,48.19
2022-10-21T04:11:50.202Z,48.67
2022-10-21T04:14:36.403Z,48.64
2022-10-21T04:17:22.386Z,48.31
2022-10-21T04:20:10.455Z,48.67
2022-10-21T04:22:56.476Z,48.16
2022-10-21T04:25:44.283Z,48.46
2022-10-21T04:28:29.985Z,48.34
2022-10-21T04:31:15.995Z,48.55
2022-10-21T04:34:02.022Z,48.55
2022-10-21T04:36:48.054Z,48.46
2022-10-21T04:39:34.222Z,48.50
2022-10-21T04:42:20.159Z,48.78
2022-10-21T04:45:06.693Z,48.42
2022-10-21T04:47:52.843Z,48.61
2022-10-21T04:50:39.044Z,48.41
2022-10-21T04:53:25.308Z,48.30
2022-10-21T04:56:11.543Z,48.31
2022-10-21T04:58:57.264Z,48.62
2022-10-21T05:01:43.343Z,48.49
2022-10-21T05:04:29.147Z,48.52
2022-10-21T05:07:15.134Z,48.45
2022-10-21T05:10:01.154Z,48.42
2022-10-21T05:12:47.214Z,49.02
2022-10-21T05:15:33.663Z,48.74
2022-10-21T05:18:19.509Z,49.21
2022-10-21T05:21:05.601Z,48.68
2022-10-21T05:23:51.874Z,48.84
2022-10-21T05:26:37.671Z,48.60
2022-10-21T05:29:23.670Z,49.14
2022-10-21T05:32:09.812Z,48.92
2022-10-21T05:34:55.775Z,49.19
2022-10-21T05:37:41.762Z,49.25
2022-10-21T05:40:27.806Z,49.07
2022-10-21T05:43:14.122Z,49.14
2022-10-21T05:46:00.106Z,49.18
2022-10-21T05:48:45.919Z,49.21
2022-10-21T05:51:31.899Z,49.28
2022-10-21T05:54:17.981Z,49.17
2022-10-21T05:57:04.186Z,49.27
2022-10-21T05:59:50.368Z,49.32
2022-10-21T06:02:36.851Z,49.12
2022-10-21T06:05:22.996Z,49.52
2022-10-21T06:08:08.930Z,49.13
2022-10-21T06:11:08.878Z,49.23
2022-10-21T06:13:55.014Z,49.30
2022-10-21T06:16:41.142Z,49.57
2022-10-21T06:19:27.008Z,49.42
2022-10-21T06:22:12.981Z,49.25
2022-10-21T06:24:58.949Z,49.41
2022-10-21T06:27:44.808Z,49.89
2022-10-21T06:30:30.847Z,49.57
2022-10-21T06:33:16.748Z,49.69
2022-10-21T06:36:03.013Z,49.64
2022-10-21T06:38:49.133Z,49.85
2022-10-21T06:41:35.239Z,49.66
2022-10-21T06:44:21.064Z,49.71
2022-10-21T06:47:07.233Z,49.80
2022-10-21T06:49:53.608Z,49.71
2022-10-21T06:52:40.955Z,49.48
2022-10-21T06:55:26.907Z,49.75
2022-10-21T06:58:12.773Z,50.11
2022-10-21T07:00:59.168Z,49.86
2022-10-21T07:03:48.267Z,50.13
2022-10-21T07:09:20.450Z,49.95
2022-10-21T07:12:06.533Z,50.12
2022-10-21T07:14:52.528Z,50.03
2022-10-21T07:17:38.636Z,50.04
2022-10-21T07:20:24.930Z,50.18
2022-10-21T07:23:10.807Z,50.24
2022-10-21T07:25:56.957Z,50.38
2022-10-21T07:28:47.033Z,50.02
2022-10-21T07:31:36.311Z,50.38
2022-10-21T07:34:22.661Z,50.35
2022-10-21T07:37:08.470Z,50.46
2022-10-21T07:39:54.846Z,50.25
2022-10-21T07:42:40.855Z,50.35
2022-10-21T07:45:26.728Z,50.27
2022-10-21T07:48:12.599Z,50.13
2022-10-21T07:51:10.388Z,50.24
2022-10-21T07:53:57.338Z,50.42
2022-10-21T07:56:46.391Z,50.15
2022-10-21T07:59:32.494Z,50.02
2022-10-21T08:02:18.310Z,50.16
2022-10-21T08:05:05.359Z,50.47
2022-10-21T08:07:51.200Z,50.36
2022-10-21T08:10:41.114Z,50.56
2022-10-21T08:13:27.246Z,49.98
2022-10-21T08:16:13.293Z,50.15
2022-10-21T08:19:03.435Z,50.06
2022-10-21T08:21:49.695Z,50.29
2022-10-21T08:24:39.920Z,50.40
2022-10-21T08:27:28.894Z,49.85
2022-10-21T08:30:15.688Z,49.91
2022-10-21T08:33:01.450Z,50.36
2022-10-21T08:35:47.465Z,49.88
2022-10-21T08:38:33.457Z,50.04
2022-10-21T08:41:31.585Z,50.37
2022-10-21T08:44:35.293Z,50.17
2022-10-21T08:47:32.038Z,50.04
2022-10-21T08:50:40.663Z,50.00
2022-10-21T08:53:58.374Z,50.44
2022-10-21T08:56:44.454Z,50.31
2022-10-21T08:59:30.732Z,50.11
2022-10-21T09:02:24.563Z,50.25
2022-10-21T09:05:24.329Z,50.25
2022-10-21T09:08:28.447Z,49.92
2022-10-21T09:11:38.673Z,50.05
2022-10-21T09:14:50.978Z,50.44
2022-10-21T09:17:53.018Z,50.51
2022-10-21T09:20:45.759Z,50.71
2022-10-21T09:23:46.644Z,51.00
2022-10-21T09:26:43.543Z,50.21
2022-10-21T09:29:35.654Z,51.32
2022-10-21T09:35:39.078Z,50.93
2022-10-21T09:38:39.156Z,50.63
2022-10-21T09:41:30.459Z,50.37
2022-10-21T09:44:18.384Z,50.32
2022-10-21T09:47:17.917Z,50.17
2022-10-21T09:50:07.691Z,49.92
2022-10-21T09:53:18.779Z,50.14
2022-10-21T09:56:26.547Z,49.83
2022-10-21T09:59:14.953Z,49.97
2022-10-21T10:02:08.204Z,49.67
2022-10-21T10:04:54.257Z,50.01
2022-10-21T10:07:40.211Z,49.88
2022-10-21T10:10:33.730Z,49.84
2022-10-21T10:13:23.473Z,49.63
2022-10-21T10:16:30.518Z,49.73
2022-10-21T10:19:22.250Z,49.48
2022-10-21T10:22:14.851Z,49.48
2022-10-21T10:25:18.637Z,49.08
2022-10-21T10:28:10.919Z,49.21
2022-10-21T10:30:57.366Z,49.40
2022-10-21T10:33:56.600Z,49.16
2022-10-21T10:36:44.739Z,49.18
2022-10-21T10:39:33.212Z,48.93
2022-10-21T10:42:25.563Z,49.15
2022-10-21T10:45:22.627Z,48.82
2022-10-21T10:48:22.467Z,48.31
2022-10-21T10:51:29.807Z,46.54
2022-10-21T10:54:27.006Z,48.65
2022-10-21T10:57:20.586Z,48.38
2022-10-21T11:00:17.465Z,48.19
2022-10-21T11:03:08.000Z,48.12
2022-10-21T11:05:59.228Z,47.90
2022-10-21T11:08:51.798Z,48.02
2022-10-21T11:11:41.248Z,48.10
2022-10-21T11:14:27.060Z,47.95
2022-10-21T11:17:13.765Z,47.94
2022-10-21T11:20:27.179Z,47.90
2022-10-21T11:23:13.222Z,47.91
2022-10-21T11:26:06.497Z,47.78
2022-10-21T11:29:03.513Z,47.66
2022-10-21T11:32:09.977Z,47.71
2022-10-21T11:35:30.513Z,47.64
2022-10-21T11:38:22.712Z,47.25
2022-10-21T11:41:11.640Z,47.42
2022-10-21T11:44:17.164Z,47.48
2022-10-21T11:47:12.043Z,46.86
2022-10-21T11:50:28.063Z,47.06
2022-10-21T11:53:36.433Z,47.05
2022-10-21T11:56:43.127Z,46.91
2022-10-21T11:59:35.329Z,46.75
2022-10-21T12:02:26.771Z,46.69
2022-10-21T12:05:22.669Z,46.70
2022-10-21T12:08:17.084Z,46.70
2022-10-21T12:11:15.796Z,46.55
2022-10-21T12:14:46.662Z,46.85
2022-10-21T12:17:34.083Z,46.41
2022-10-21T12:20:24.093Z,46.29
2022-10-21T12:23:12.228Z,46.18
2022-10-21T12:26:18.334Z,46.22
2022-10-21T12:29:37.559Z,46.48
2022-10-21T12:32:32.033Z,45.48
2022-10-21T12:35:27.845Z,45.71
2022-10-21T12:38:40.404Z,44.76
2022-10-21T12:41:36.265Z,45.70
2022-10-21T12:44:27.163Z,45.79
2022-10-21T12:47:32.540Z,45.80
2022-10-21T12:50:29.033Z,45.31
2022-10-21T12:53:20.814Z,45.47
2022-10-21T12:56:07.971Z,45.51
2022-10-21T12:59:04.497Z,45.17
2022-10-21T13:02:05.821Z,45.01
2022-10-21T13:04:53.941Z,45.06
2022-10-21T13:07:40.338Z,44.95
2022-10-21T13:10:26.785Z,44.81
2022-10-21T13:13:28.800Z,43.36
2022-10-21T13:16:21.196Z,44.45
2022-10-21T13:19:16.571Z,44.26
2022-10-21T13:22:10.529Z,44.07
2022-10-21T13:24:56.340Z,43.88
2022-10-21T13:28:07.949Z,43.30
2022-10-21T13:30:59.146Z,42.88
2022-10-21T13:33:53.121Z,42.57
2022-10-21T13:36:42.847Z,42.17
2022-10-21T13:39:31.922Z,41.68
2022-10-21T13:42:20.685Z,41.42
2022-10-21T13:45:20.015Z,41.07
2022-10-21T13:48:07.153Z,41.23
2022-10-21T13:50:53.516Z,41.17
2022-10-21T13:53:45.600Z,40.78
2022-10-21T13:56:33.880Z,41.29
2022-10-21T13:59:24.582Z,41.31
2022-10-21T14:02:24.750Z,41.30
2022-10-21T14:05:46.710Z,41.46
2022-10-21T14:08:38.212Z,41.37
2022-10-21T14:11:27.603Z,41.34
2022-10-21T14:14:16.269Z,41.43
2022-10-21T14:17:05.722Z,41.63
2022-10-21T14:19:54.141Z,41.72
2022-10-21T14:22:40.686Z,41.58
2022-10-21T14:25:27.458Z,41.74
2022-10-21T14:28:14.148Z,41.73
2022-10-21T14:31:01.667Z,41.82
2022-10-21T14:33:49.748Z,41.89
2022-10-21T14:37:11.819Z,41.98
2022-10-21T14:40:10.592Z,41.96
2022-10-21T14:42:56.524Z,41.88
2022-10-21T14:45:53.382Z,41.94
2022-10-21T14:48:45.600Z,41.91
2022-10-21T14:51:36.779Z,41.82
2022-10-21T14:54:43.621Z,42.08
2022-10-21T14:57:50.377Z,42.00
2022-10-21T15:00:41.718Z,42.17
2022-10-21T15:04:03.455Z,42.44
2022-10-21T15:07:00.532Z,41.95
2022-10-21T15:09:56.828Z,42.07
2022-10-21T15:12:43.971Z,42.10
2022-10-21T15:15:54.188Z,42.09
2022-10-21T15:18:52.698Z,42.22
2022-10-21T15:22:00.043Z,42.49
2022-10-21T15:24:46.344Z,42.36
2022-10-21T15:27:37.010Z,42.30
2022-10-21T15:30:23.465Z,42.42
2022-10-21T15:33:12.125Z,42.49
2022-10-21T15:36:06.150Z,42.41
2022-10-21T15:38:52.337Z,42.36
2022-10-21T15:41:38.474Z,42.58
2022-10-21T15:44:34.884Z,42.59
2022-10-21T15:47:21.050Z,42.62
2022-10-21T15:50:14.864Z,42.67
2022-10-21T15:53:00.968Z,42.91
2022-10-21T15:55:46.799Z,42.77
2022-10-21T15:58:32.680Z,42.88
2022-10-21T16:01:18.663Z,42.84
2022-10-21T16:04:04.665Z,42.90
2022-10-21T16:06:51.884Z,42.90
2022-10-21T16:09:37.834Z,43.00
2022-10-21T16:12:23.714Z,43.17
2022-10-21T16:15:10.451Z,43.33
2022-10-21T16:17:57.755Z,43.21
2022-10-21T16:20:43.903Z,43.48
2022-10-21T16:23:31.655Z,43.54
2022-10-21T16:26:26.017Z,43.58
2022-10-21T16:29:21.177Z,43.70
2022-10-21T16:32:09.137Z,43.61
2022-10-21T16:34:55.152Z,43.75
2022-10-21T16:37:42.422Z,43.59
2022-10-21T16:40:32.830Z,43.86
2022-10-21T16:43:18.932Z,43.99
2022-10-21T16:46:04.995Z,43.80
2022-10-21T16:48:51.080Z,44.08
2022-10-21T16:51:38.416Z,44.14
2022-10-21T16:54:24.753Z,44.00
2022-10-21T16:57:10.943Z,44.12
2022-10-21T16:59:56.960Z,44.08
2022-10-21T17:02:44.372Z,44.52
2022-10-21T17:05:30.602Z,44.26
2022-10-21T17:08:16.948Z,44.60
2022-10-21T17:11:06.220Z,44.68
2022-10-21T17:13:52.147Z,44.65
2022-10-21T17:16:40.116Z,44.72
2022-10-21T17:19:26.245Z,44.53
2022-10-21T17:22:19.342Z,44.72
2022-10-21T17:25:06.138Z,44.92
2022-10-21T17:27:52.481Z,45.07
2022-10-21T17:30:38.659Z,45.00
2022-10-21T17:33:24.778Z,45.13
2022-10-21T17:36:11.160Z,45.01
2022-10-21T17:38:57.395Z,45.01
2022-10-21T17:41:43.335Z,45.34
2022-10-21T17:44:29.388Z,45.25
2022-10-21T17:47:15.873Z,45.23
2022-10-21T17:50:01.993Z,45.50
2022-10-21T17:52:48.101Z,45.36
2022-10-21T17:55:33.906Z,45.34
2022-10-21T17:58:20.178Z,45.68
2022-10-21T18:01:08.614Z,45.64
2022-10-21T18:03:58.103Z,45.88
2022-10-21T18:06:44.339Z,45.87
2022-10-21T18:09:30.608Z,45.85
2022-10-21T18:12:17.629Z,45.81
2022-10-21T18:15:04.158Z,45.87
2022-10-21T18:17:49.985Z,45.97
2022-10-21T18:20:36.834Z,46.17
2022-10-21T18:23:23.419Z,45.98
2022-10-21T18:26:14.889Z,46.23
2022-10-21T18:29:03.059Z,46.21
2022-10-21T18:31:49.613Z,46.49
2022-10-21T18:34:35.861Z,46.33
2022-10-21T18:37:21.798Z,46.57
2022-10-21T18:40:08.694Z,46.57
2022-10-21T18:42:54.767Z,46.54
2022-10-21T18:45:45.562Z,46.71
2022-10-21T18:48:32.161Z,46.51
2022-10-21T18:51:23.243Z,46.43
2022-10-21T18:54:09.615Z,46.57
2022-10-21T18:56:55.610Z,46.62
2022-10-21T18:59:41.906Z,46.92
2022-10-21T19:02:28.310Z,46.91
2022-10-21T19:05:14.590Z,46.97
2022-10-21T19:08:00.876Z,46.96
2022-10-21T19:10:47.190Z,47.23
2022-10-21T19:13:33.348Z,46.96
2022-10-21T19:16:19.310Z,46.79
2022-10-21T19:19:05.961Z,47.15
2022-10-21T19:21:52.330Z,47.19
2022-10-21T19:24:38.505Z,47.28
2022-10-21T19:27:24.552Z,47.02
2022-10-21T19:30:11.113Z,47.27
2022-10-21T19:33:00.440Z,47.19
2022-10-21T19:35:46.571Z,47.21
2022-10-21T19:38:43.728Z,47.28
2022-10-21T19:41:30.079Z,47.26
2022-10-21T19:44:16.387Z,47.64
2022-10-21T19:47:02.547Z,47.62
2022-10-21T19:49:48.641Z,47.56
2022-10-21T19:52:34.693Z,47.64
2022-10-21T19:55:21.657Z,47.82
2022-10-21T19:58:07.767Z,47.55
2022-10-21T20:01:05.207Z,47.91
2022-10-21T20:03:51.958Z,47.93
2022-10-21T20:06:38.886Z,48.19
2022-10-21T20:09:25.113Z,47.91
2022-10-21T20:12:11.283Z,48.80
2022-10-21T20:14:58.086Z,48.15
2022-10-21T20:17:44.043Z,48.28
2022-10-21T20:20:30.353Z,48.25
2022-10-21T20:23:16.784Z,48.67
2022-10-21T20:26:03.559Z,48.35
2022-10-21T20:28:50.985Z,48.60
2022-10-21T20:31:37.067Z,48.47
2022-10-21T20:34:41.912Z,48.65
2022-10-21T20:37:27.739Z,48.34
2022-10-21T20:40:13.802Z,48.71
2022-10-21T20:42:59.766Z,48.51
2022-10-21T20:45:45.601Z,48.44
2022-10-21T20:48:32.093Z,48.80
2022-10-21T20:51:20.587Z,48.74
2022-10-21T20:54:09.583Z,48.94
2022-10-21T20:56:55.360Z,49.15
2022-10-21T20:59:41.207Z,49.02
2022-10-21T21:02:27.121Z,48.78
2022-10-21T21:05:13.114Z,48.88
2022-10-21T21:07:59.236Z,48.98
2022-10-21T21:10:45.437Z,49.00
2022-10-21T21:13:31.553Z,48.95
2022-10-21T21:16:19.698Z,49.08
2022-10-21T21:19:07.913Z,49.03
2022-10-21T21:21:53.878Z,49.15
2022-10-21T21:24:40.464Z,49.31
2022-10-21T21:27:28.797Z,49.25
2022-10-21T21:30:14.919Z,49.52
2022-10-21T21:33:00.955Z,49.59
2022-10-21T21:35:47.037Z,49.42
2022-10-21T21:38:33.939Z,49.37
2022-10-21T21:41:21.221Z,49.36
2022-10-21T21:44:07.455Z,49.76
2022-10-21T21:46:53.362Z,49.44
2022-10-21T21:49:39.285Z,49.80
2022-10-21T21:52:26.142Z,49.88
2022-10-21T21:55:12.299Z,49.57
2022-10-21T21:57:58.248Z,49.84
2022-10-21T22:00:44.120Z,49.80
2022-10-21T22:03:30.266Z,50.11
2022-10-21T22:06:19.448Z,49.87
2022-10-21T22:09:11.889Z,50.00
2022-10-21T22:11:58.091Z,50.36
2022-10-21T22:14:44.179Z,49.99
2022-10-21T22:17:29.987Z,50.29
2022-10-21T22:20:16.783Z,50.22
2022-10-21T22:23:03.082Z,49.78
2022-10-21T22:25:49.177Z,49.59
2022-10-21T22:28:35.522Z,49.92
2022-10-21T22:31:27.171Z,50.25
2022-10-21T22:34:16.249Z,50.17
2022-10-21T22:37:02.265Z,50.17
2022-10-21T22:39:48.129Z,50.24
2022-10-21T22:42:34.222Z,50.27
2022-10-21T22:45:20.271Z,50.61
2022-10-21T22:48:06.209Z,50.58
2022-10-21T22:50:52.092Z,50.26
2022-10-21T22:53:37.947Z,50.66
2022-10-21T22:56:25.257Z,50.78
2022-10-21T22:59:10.995Z,50.58
2022-10-21T23:01:56.889Z,50.80
2022-10-21T23:04:42.973Z,50.92
2022-10-21T23:07:28.890Z,50.77
2022-10-21T23:10:15.017Z,50.92
2022-10-21T23:13:01.312Z,51.02
2022-10-21T23:15:47.958Z,50.88
2022-10-21T23:18:34.097Z,50.88
2022-10-21T23:21:19.915Z,51.25
2022-10-21T23:24:06.462Z,50.93
2022-10-21T23:26:54.498Z,51.04
2022-10-21T23:29:43.774Z,51.14
2022-10-21T23:32:29.752Z,50.84
2022-10-21T23:35:16.044Z,50.94
2022-10-21T23:38:02.261Z,51.00
2022-10-21T23:40:48.255Z,51.13
2022-10-21T23:43:34.341Z,50.96
2022-10-21T23:46:21.154Z,51.47
2022-10-21T23:49:07.106Z,51.05
2022-10-21T23:51:53.041Z,51.19
2022-10-21T23:54:38.861Z,51.64
2022-10-21T23:57:26.079Z,51.29
